createdAt,value
2022-11-25T00:00:10.235Z,0.62
2022-11-25T00:00:30.284Z,0.61
2022-11-25T00:00:50.408Z,0.62
2022-11-25T00:01:10.491Z,0.61
2022-11-25T00:01:30.471Z,0.61
2022-11-25T00:01:50.561Z,0.64
2022-11-25T00:02:10.641Z,0.62
2022-11-25T00:02:30.780Z,0.64
2022-11-25T00:02:50.871Z,0.64
2022-11-25T00:03:10.838Z,0.65
2022-11-25T00:03:30.910Z,0.64
2022-11-25T00:03:50.907Z,0.64
2022-11-25T00:04:10.945Z,0.62
2022-11-25T00:04:31.004Z,0.59
2022-11-25T00:04:51.035Z,0.58
2022-11-25T00:05:11.106Z,0.59
2022-11-25T00:05:31.271Z,0.58
2022-11-25T00:05:51.234Z,0.56
2022-11-25T00:06:11.411Z,0.55
2022-11-25T00:06:31.352Z,0.58
2022-11-25T00:06:51.409Z,0.56
2022-11-25T00:07:11.531Z,0.55
2022-11-25T00:07:31.570Z,0.56
2022-11-25T00:07:51.699Z,0.56
2022-11-25T00:08:11.645Z,0.55
2022-11-25T00:08:31.697Z,0.52
2022-11-25T00:08:51.729Z,0.54
2022-11-25T00:09:11.839Z,0.52
2022-11-25T00:09:31.879Z,0.49
2022-11-25T00:09:51.922Z,0.48
2022-11-25T00:10:11.975Z,0.48
2022-11-25T00:10:32.045Z,0.45
2022-11-25T00:10:52.117Z,0.47
2022-11-25T00:11:12.399Z,0.45
2022-11-25T00:11:32.237Z,0.47
2022-11-25T00:11:52.295Z,0.47
2022-11-25T00:12:12.346Z,0.45
2022-11-25T00:12:32.403Z,0.47
2022-11-25T00:12:52.450Z,0.4
2022-11-25T00:13:12.539Z,0.4
2022-11-25T00:13:32.578Z,0.4
2022-11-25T00:13:52.637Z,0.42
2022-11-25T00:14:12.677Z,0.38
2022-11-25T00:14:32.946Z,0.37
2022-11-25T00:14:52.817Z,0.35
2022-11-25T00:15:12.881Z,0.35
2022-11-25T00:15:32.942Z,0.37
2022-11-25T00:15:52.999Z,0.34
2022-11-25T00:16:13.191Z,0.35
2022-11-25T00:16:33.218Z,0.32
2022-11-25T00:16:53.213Z,0.32
2022-11-25T00:17:13.232Z,0.32
2022-11-25T00:17:33.308Z,0.32
2022-11-25T00:17:53.368Z,0.32
2022-11-25T00:18:13.424Z,0.31
2022-11-25T00:18:33.476Z,0.29
2022-11-25T00:18:53.545Z,0.31
2022-11-25T00:19:13.610Z,0.29
2022-11-25T00:19:33.688Z,0.29
2022-11-25T00:19:53.703Z,0.31
2022-11-25T00:20:13.793Z,0.28
2022-11-25T00:20:33.847Z,0.28
2022-11-25T00:20:53.901Z,0.28
2022-11-25T00:21:14.034Z,0.27
2022-11-25T00:21:34.032Z,0.27
2022-11-25T00:21:54.092Z,0.24
2022-11-25T00:22:14.150Z,0.27
2022-11-25T00:22:34.191Z,0.27
2022-11-25T00:22:54.267Z,0.25
2022-11-25T00:23:14.334Z,0.25
2022-11-25T00:23:34.385Z,0.25
2022-11-25T00:23:54.440Z,0.24
2022-11-25T00:24:14.505Z,0.24
2022-11-25T00:24:34.941Z,0.25
2022-11-25T00:24:54.615Z,0.22
2022-11-25T00:25:14.668Z,0.22
2022-11-25T00:25:34.733Z,0.22
2022-11-25T00:25:54.802Z,0.22
2022-11-25T00:26:15.079Z,0.28
2022-11-25T00:26:34.915Z,0.34
2022-11-25T00:26:54.991Z,0.4
2022-11-25T00:27:15.020Z,0.42
2022-11-25T00:27:35.107Z,0.45
2022-11-25T00:27:55.158Z,0.45
2022-11-25T00:28:15.213Z,0.47
2022-11-25T00:28:35.292Z,0.48
2022-11-25T00:28:55.350Z,0.48
2022-11-25T00:29:15.405Z,0.47
2022-11-25T00:29:35.477Z,0.47
2022-11-25T00:29:55.532Z,0.51
2022-11-25T00:30:15.588Z,0.47
2022-11-25T00:30:35.652Z,0.48
2022-11-25T00:30:55.704Z,0.49
2022-11-25T00:31:15.960Z,0.49
2022-11-25T00:31:35.959Z,0.49
2022-11-25T00:31:55.970Z,0.48
2022-11-25T00:32:15.961Z,0.49
2022-11-25T00:32:36.000Z,0.49
2022-11-25T00:32:56.091Z,0.51
2022-11-25T00:33:16.169Z,0.52
2022-11-25T00:33:36.212Z,0.52
2022-11-25T00:33:56.261Z,0.55
2022-11-25T00:34:16.331Z,0.55
2022-11-25T00:34:36.622Z,0.54
2022-11-25T00:34:56.434Z,0.55
2022-11-25T00:35:16.488Z,0.55
2022-11-25T00:35:36.557Z,0.56
2022-11-25T00:35:56.626Z,0.58
2022-11-25T00:36:16.800Z,0.55
2022-11-25T00:36:36.747Z,0.56
2022-11-25T00:36:56.797Z,0.56
2022-11-25T00:37:16.865Z,0.55
2022-11-25T00:37:36.920Z,0.55
2022-11-25T00:37:56.992Z,0.56
2022-11-25T00:38:17.048Z,0.58
2022-11-25T00:38:37.111Z,0.56
2022-11-25T00:38:57.166Z,0.56
2022-11-25T00:39:17.221Z,0.59
2022-11-25T00:39:37.278Z,0.58
2022-11-25T00:39:57.346Z,0.59
2022-11-25T00:40:17.414Z,0.61
2022-11-25T00:40:37.458Z,0.61
2022-11-25T00:40:57.542Z,0.61
2022-11-25T00:41:17.764Z,0.58
2022-11-25T00:41:37.672Z,0.62
2022-11-25T00:41:57.727Z,0.62
2022-11-25T00:42:17.774Z,0.62
2022-11-25T00:42:37.821Z,0.64
2022-11-25T00:42:57.925Z,0.62
2022-11-25T00:43:17.977Z,0.64
2022-11-25T00:43:38.030Z,0.64
2022-11-25T00:43:58.089Z,0.62
2022-11-25T00:44:18.130Z,0.64
2022-11-25T00:44:39.151Z,0.64
2022-11-25T00:44:58.314Z,0.69
2022-11-25T00:45:18.321Z,0.68
2022-11-25T00:45:38.461Z,0.72
2022-11-25T00:45:58.555Z,0.71
2022-11-25T00:46:18.738Z,0.73
2022-11-25T00:46:38.612Z,0.72
2022-11-25T00:46:58.674Z,0.72
2022-11-25T00:47:18.726Z,0.75
2022-11-25T00:47:38.775Z,0.72
2022-11-25T00:47:58.845Z,0.73
2022-11-25T00:48:18.898Z,0.75
2022-11-25T00:48:38.964Z,0.75
2022-11-25T00:48:59.014Z,0.76
2022-11-25T00:49:19.059Z,0.77
2022-11-25T00:49:39.110Z,0.76
2022-11-25T00:49:59.190Z,0.73
2022-11-25T00:50:19.253Z,0.73
2022-11-25T00:50:39.299Z,0.75
2022-11-25T00:50:59.392Z,0.75
2022-11-25T00:51:19.512Z,0.73
2022-11-25T00:51:39.495Z,0.73
2022-11-25T00:51:59.552Z,0.76
2022-11-25T00:52:19.576Z,0.73
2022-11-25T00:52:39.673Z,0.76
2022-11-25T00:52:59.734Z,0.76
2022-11-25T00:53:19.791Z,0.77
2022-11-25T00:53:39.860Z,0.76
2022-11-25T00:53:59.899Z,0.77
2022-11-25T00:54:19.964Z,0.77
2022-11-25T00:54:40.031Z,0.8
2022-11-25T00:55:00.111Z,0.83
2022-11-25T00:55:20.152Z,0.82
2022-11-25T00:55:40.229Z,0.82
2022-11-25T00:56:00.286Z,0.82
2022-11-25T00:56:20.579Z,0.8
2022-11-25T00:56:40.429Z,0.82
2022-11-25T00:57:00.489Z,0.86
2022-11-25T00:57:20.524Z,0.87
2022-11-25T00:57:40.596Z,0.87
2022-11-25T00:58:00.661Z,0.92
2022-11-25T00:58:20.722Z,0.93
2022-11-25T00:58:40.796Z,0.93
2022-11-25T00:59:00.837Z,0.9
2022-11-25T00:59:20.891Z,0.89
2022-11-25T00:59:40.942Z,0.9
2022-11-25T01:00:01.011Z,0.86
2022-11-25T01:00:21.076Z,0.87
2022-11-25T01:00:41.175Z,0.87
2022-11-25T01:01:01.290Z,0.85
2022-11-25T01:01:21.475Z,0.82
2022-11-25T01:01:41.327Z,0.79
2022-11-25T01:02:01.420Z,0.79
2022-11-25T01:02:21.498Z,0.76
2022-11-25T01:02:41.549Z,0.75
2022-11-25T01:03:01.538Z,0.72
2022-11-25T01:03:21.616Z,0.71
2022-11-25T01:03:41.665Z,0.68
2022-11-25T01:04:01.728Z,0.68
2022-11-25T01:04:21.788Z,0.68
2022-11-25T01:04:41.855Z,0.62
2022-11-25T01:05:01.881Z,0.62
2022-11-25T01:05:21.940Z,0.61
2022-11-25T01:05:42.021Z,0.61
2022-11-25T01:06:02.103Z,0.59
2022-11-25T01:06:22.280Z,0.58
2022-11-25T01:06:42.223Z,0.58
2022-11-25T01:07:02.273Z,0.55
2022-11-25T01:07:22.431Z,0.54
2022-11-25T01:07:42.423Z,0.54
2022-11-25T01:08:02.458Z,0.54
2022-11-25T01:08:22.515Z,0.55
2022-11-25T01:08:42.648Z,0.54
2022-11-25T01:09:02.633Z,0.54
2022-11-25T01:09:22.703Z,0.54
2022-11-25T01:09:42.797Z,0.52
2022-11-25T01:10:02.831Z,0.52
2022-11-25T01:10:22.889Z,0.52
2022-11-25T01:10:42.928Z,0.51
2022-11-25T01:11:02.984Z,0.49
2022-11-25T01:11:23.313Z,0.47
2022-11-25T01:11:43.104Z,0.47
2022-11-25T01:12:03.181Z,0.45
2022-11-25T01:12:23.231Z,0.47
2022-11-25T01:12:43.296Z,0.44
2022-11-25T01:13:03.371Z,0.45
2022-11-25T01:13:23.428Z,0.44
2022-11-25T01:13:43.460Z,0.44
2022-11-25T01:14:03.536Z,0.41
2022-11-25T01:14:23.609Z,0.42
2022-11-25T01:14:43.673Z,0.4
2022-11-25T01:15:03.699Z,0.42
2022-11-25T01:15:23.781Z,0.4
2022-11-25T01:15:43.856Z,0.38
2022-11-25T01:16:03.980Z,0.37
2022-11-25T01:16:24.133Z,0.34
2022-11-25T01:16:44.100Z,0.35
2022-11-25T01:17:04.082Z,0.37
2022-11-25T01:17:24.108Z,0.35
2022-11-25T01:17:44.171Z,0.35
2022-11-25T01:18:04.252Z,0.32
2022-11-25T01:18:24.311Z,0.32
2022-11-25T01:18:44.380Z,0.32
2022-11-25T01:19:04.451Z,0.29
2022-11-25T01:19:24.517Z,0.29
2022-11-25T01:19:44.596Z,0.29
2022-11-25T01:20:04.634Z,0.28
2022-11-25T01:20:24.704Z,0.29
2022-11-25T01:20:44.754Z,0.27
2022-11-25T01:21:04.802Z,0.29
2022-11-25T01:21:24.990Z,0.29
2022-11-25T01:21:44.943Z,0.28
2022-11-25T01:22:05.000Z,0.28
2022-11-25T01:22:25.051Z,0.28
2022-11-25T01:22:45.129Z,0.29
2022-11-25T01:23:05.183Z,0.29
2022-11-25T01:23:25.241Z,0.32
2022-11-25T01:23:45.300Z,0.29
2022-11-25T01:24:05.356Z,0.31
2022-11-25T01:24:25.417Z,0.29
2022-11-25T01:24:45.467Z,0.29
2022-11-25T01:25:05.517Z,0.29
2022-11-25T01:25:25.551Z,0.31
2022-11-25T01:25:45.616Z,0.29
2022-11-25T01:26:05.686Z,0.28
2022-11-25T01:26:25.960Z,0.29
2022-11-25T01:26:45.838Z,0.31
2022-11-25T01:27:05.895Z,0.32
2022-11-25T01:27:25.951Z,0.31
2022-11-25T01:27:46.017Z,0.34
2022-11-25T01:28:06.086Z,0.35
2022-11-25T01:28:26.139Z,0.35
2022-11-25T01:28:46.193Z,0.35
2022-11-25T01:29:06.244Z,0.35
2022-11-25T01:29:26.311Z,0.35
2022-11-25T01:29:46.353Z,0.34
2022-11-25T01:30:06.390Z,0.35
2022-11-25T01:30:26.459Z,0.35
2022-11-25T01:30:46.551Z,0.34
2022-11-25T01:31:06.598Z,0.34
2022-11-25T01:31:26.882Z,0.34
2022-11-25T01:31:46.825Z,0.34
2022-11-25T01:32:06.906Z,0.34
2022-11-25T01:32:26.807Z,0.34
2022-11-25T01:32:46.891Z,0.35
2022-11-25T01:33:06.943Z,0.35
2022-11-25T01:33:27.023Z,0.32
2022-11-25T01:33:47.071Z,0.34
2022-11-25T01:34:07.104Z,0.31
2022-11-25T01:34:27.180Z,0.29
2022-11-25T01:34:47.229Z,0.31
2022-11-25T01:35:07.297Z,0.31
2022-11-25T01:35:27.337Z,0.28
2022-11-25T01:35:47.407Z,0.25
2022-11-25T01:36:07.485Z,0.25
2022-11-25T01:36:27.624Z,0.24
2022-11-25T01:36:47.599Z,0.25
2022-11-25T01:37:07.673Z,0.22
2022-11-25T01:37:27.731Z,0.21
2022-11-25T01:37:47.795Z,0.2
2022-11-25T01:38:07.843Z,0.2
2022-11-25T01:38:27.901Z,0.18
2022-11-25T01:38:48.054Z,0.17
2022-11-25T01:39:08.032Z,0.17
2022-11-25T01:39:32.438Z,0.17
2022-11-25T01:39:48.135Z,0.16
2022-11-25T01:40:08.205Z,0.16
2022-11-25T01:40:28.284Z,0.14
2022-11-25T01:40:48.332Z,0.13
2022-11-25T01:41:08.388Z,0.13
2022-11-25T01:41:28.647Z,0.14
2022-11-25T01:41:48.498Z,0.17
2022-11-25T01:42:08.564Z,0.14
2022-11-25T01:42:28.634Z,0.18
2022-11-25T01:42:48.686Z,0.2
2022-11-25T01:43:08.726Z,0.21
2022-11-25T01:43:28.801Z,0.21
2022-11-25T01:43:48.867Z,0.27
2022-11-25T01:44:08.937Z,0.27
2022-11-25T01:44:28.967Z,0.27
2022-11-25T01:44:49.010Z,0.25
2022-11-25T01:45:09.104Z,0.28
2022-11-25T01:45:29.195Z,0.31
2022-11-25T01:45:49.306Z,0.31
2022-11-25T01:46:09.416Z,0.35
2022-11-25T01:46:29.476Z,0.41
2022-11-25T01:46:49.409Z,0.49
2022-11-25T01:47:09.452Z,0.54
2022-11-25T01:47:29.522Z,0.64
2022-11-25T01:47:49.566Z,0.68
2022-11-25T01:48:09.639Z,0.77
2022-11-25T01:48:29.706Z,0.8
2022-11-25T01:48:49.723Z,0.87
2022-11-25T01:49:09.788Z,0.87
2022-11-25T01:49:29.890Z,0.89
2022-11-25T01:49:49.941Z,0.92
2022-11-25T01:50:10.010Z,0.97
2022-11-25T01:50:30.058Z,1
2022-11-25T01:50:50.175Z,1.03
2022-11-25T01:51:10.187Z,1.04
2022-11-25T01:51:30.356Z,1.1
2022-11-25T01:51:50.298Z,1.1
2022-11-25T01:52:10.352Z,1.14
2022-11-25T01:52:30.420Z,1.17
2022-11-25T01:52:50.477Z,1.22
2022-11-25T01:53:10.543Z,1.2
2022-11-25T01:53:30.608Z,1.23
2022-11-25T01:53:50.660Z,1.22
2022-11-25T01:54:10.714Z,1.22
2022-11-25T01:54:30.755Z,1.22
2022-11-25T01:54:50.817Z,1.22
2022-11-25T01:55:10.920Z,1.2
2022-11-25T01:55:30.972Z,1.22
2022-11-25T01:55:51.021Z,1.2
2022-11-25T01:56:11.101Z,1.19
2022-11-25T01:56:31.329Z,1.17
2022-11-25T01:56:51.204Z,1.16
2022-11-25T01:57:11.292Z,1.13
2022-11-25T01:57:31.337Z,1.14
2022-11-25T01:57:51.396Z,1.1
2022-11-25T01:58:11.455Z,1.1
2022-11-25T01:58:31.576Z,1.06
2022-11-25T01:58:51.562Z,1.03
2022-11-25T01:59:11.620Z,1.04
2022-11-25T01:59:31.700Z,1.03
2022-11-25T01:59:51.776Z,1.02
2022-11-25T02:00:11.831Z,0.99
2022-11-25T02:00:31.888Z,0.96
2022-11-25T02:00:51.976Z,0.95
2022-11-25T02:01:12.086Z,0.97
2022-11-25T02:01:32.232Z,0.95
2022-11-25T02:01:52.159Z,0.99
2022-11-25T02:02:12.303Z,1
2022-11-25T02:02:32.448Z,1.02
2022-11-25T02:02:52.311Z,1
2022-11-25T02:03:12.368Z,0.97
2022-11-25T02:03:32.441Z,0.97
2022-11-25T02:03:52.503Z,0.97
2022-11-25T02:04:12.549Z,0.99
2022-11-25T02:04:32.792Z,1.04
2022-11-25T02:04:52.657Z,1.02
2022-11-25T02:05:12.728Z,1.03
2022-11-25T02:05:34.080Z,1.04
2022-11-25T02:05:52.865Z,1.1
2022-11-25T02:06:12.890Z,1.19
2022-11-25T02:06:33.095Z,1.22
2022-11-25T02:06:53.010Z,1.3
2022-11-25T02:07:13.141Z,1.34
2022-11-25T02:07:33.400Z,1.38
2022-11-25T02:07:53.260Z,1.38
2022-11-25T02:08:13.259Z,1.41
2022-11-25T02:08:33.326Z,1.44
2022-11-25T02:08:53.370Z,1.47
2022-11-25T02:09:13.460Z,1.54
2022-11-25T02:09:33.517Z,1.58
2022-11-25T02:09:53.586Z,1.64
2022-11-25T02:10:13.642Z,1.68
2022-11-25T02:10:33.716Z,1.71
2022-11-25T02:10:53.766Z,1.73
2022-11-25T02:11:13.855Z,1.79
2022-11-25T02:11:34.092Z,1.78
2022-11-25T02:11:53.973Z,1.79
2022-11-25T02:12:14.020Z,1.83
2022-11-25T02:12:34.081Z,1.87
2022-11-25T02:12:54.150Z,1.92
2022-11-25T02:13:14.207Z,1.93
2022-11-25T02:13:34.263Z,1.96
2022-11-25T02:13:54.315Z,1.98
2022-11-25T02:14:14.379Z,1.98
2022-11-25T02:14:34.871Z,1.95
2022-11-25T02:14:54.487Z,1.98
2022-11-25T02:15:14.548Z,2.02
2022-11-25T02:15:34.598Z,2.03
2022-11-25T02:15:54.677Z,2.08
2022-11-25T02:16:14.805Z,2.1
2022-11-25T02:16:34.951Z,2.1
2022-11-25T02:16:54.899Z,2.13
2022-11-25T02:17:14.920Z,2.13
2022-11-25T02:17:34.978Z,2.14
2022-11-25T02:17:55.038Z,2.16
2022-11-25T02:18:15.107Z,2.17
2022-11-25T02:18:35.168Z,2.17
2022-11-25T02:18:55.215Z,2.19
2022-11-25T02:19:15.274Z,2.16
2022-11-25T02:19:35.347Z,2.2
2022-11-25T02:19:55.408Z,2.2
2022-11-25T02:20:15.459Z,2.2
2022-11-25T02:20:35.523Z,2.23
2022-11-25T02:20:55.583Z,2.2
2022-11-25T02:21:15.613Z,2.22
2022-11-25T02:21:35.825Z,2.23
2022-11-25T02:21:55.756Z,2.27
2022-11-25T02:22:15.823Z,2.31
2022-11-25T02:22:35.882Z,2.34
2022-11-25T02:22:55.930Z,2.33
2022-11-25T02:23:15.990Z,2.38
2022-11-25T02:23:36.060Z,2.36
2022-11-25T02:23:56.131Z,2.37
2022-11-25T02:24:16.181Z,2.37
2022-11-25T02:24:36.384Z,2.38
2022-11-25T02:24:56.363Z,2.37
2022-11-25T02:25:16.351Z,2.4
2022-11-25T02:25:36.396Z,2.4
2022-11-25T02:25:56.465Z,2.38
2022-11-25T02:26:16.520Z,2.38
2022-11-25T02:26:36.755Z,2.43
2022-11-25T02:26:56.617Z,2.41
2022-11-25T02:27:16.682Z,2.41
2022-11-25T02:27:36.750Z,2.4
2022-11-25T02:27:56.841Z,2.44
2022-11-25T02:28:16.942Z,2.41
2022-11-25T02:28:36.942Z,2.43
2022-11-25T02:28:57.007Z,2.4
2022-11-25T02:29:17.061Z,2.4
2022-11-25T02:29:37.122Z,2.38
2022-11-25T02:29:57.152Z,2.4
2022-11-25T02:30:17.204Z,2.4
2022-11-25T02:30:37.286Z,2.43
2022-11-25T02:30:57.327Z,2.44
2022-11-25T02:31:17.519Z,2.45
2022-11-25T02:31:37.676Z,2.47
2022-11-25T02:31:57.629Z,2.45
2022-11-25T02:32:17.671Z,2.47
2022-11-25T02:32:37.671Z,2.5
2022-11-25T02:32:57.714Z,2.52
2022-11-25T02:33:17.791Z,2.55
2022-11-25T02:33:37.843Z,2.57
2022-11-25T02:33:57.959Z,2.57
2022-11-25T02:34:17.959Z,2.61
2022-11-25T02:34:38.254Z,2.6
2022-11-25T02:34:58.081Z,2.6
2022-11-25T02:35:18.137Z,2.6
2022-11-25T02:35:38.205Z,2.61
2022-11-25T02:35:58.288Z,2.61
2022-11-25T02:36:18.335Z,2.61
2022-11-25T02:36:38.485Z,2.61
2022-11-25T02:36:58.432Z,2.62
2022-11-25T02:37:18.500Z,2.64
2022-11-25T02:37:38.575Z,2.65
2022-11-25T02:37:58.636Z,2.65
2022-11-25T02:38:18.683Z,2.64
2022-11-25T02:38:38.824Z,2.64
2022-11-25T02:38:58.801Z,2.62
2022-11-25T02:39:18.864Z,2.62
2022-11-25T02:39:38.948Z,2.64
2022-11-25T02:39:58.996Z,2.6
2022-11-25T02:40:19.066Z,2.61
2022-11-25T02:40:39.127Z,2.61
2022-11-25T02:40:59.186Z,2.61
2022-11-25T02:41:19.234Z,2.6
2022-11-25T02:41:39.396Z,2.58
2022-11-25T02:41:59.345Z,2.6
2022-11-25T02:42:19.406Z,2.6
2022-11-25T02:42:39.470Z,2.61
2022-11-25T02:42:59.533Z,2.6
2022-11-25T02:43:19.718Z,2.62
2022-11-25T02:43:39.648Z,2.64
2022-11-25T02:43:59.716Z,2.64
2022-11-25T02:44:19.746Z,2.65
2022-11-25T02:44:39.791Z,2.65
2022-11-25T02:44:59.888Z,2.67
2022-11-25T02:45:19.924Z,2.62
2022-11-25T02:45:40.051Z,2.64
2022-11-25T02:46:00.240Z,2.6
2022-11-25T02:46:22.393Z,2.6
2022-11-25T02:46:40.372Z,2.57
2022-11-25T02:47:00.283Z,2.57
2022-11-25T02:47:20.343Z,2.52
2022-11-25T02:47:40.415Z,2.51
2022-11-25T02:48:00.448Z,2.5
2022-11-25T02:48:23.955Z,2.41
2022-11-25T02:49:07.416Z,2.43
2022-11-25T02:49:08.977Z,2.38
2022-11-25T02:49:20.737Z,2.4
2022-11-25T02:49:40.788Z,2.36
2022-11-25T02:50:00.857Z,2.33
2022-11-25T02:50:20.921Z,2.31
2022-11-25T02:50:40.972Z,2.31
2022-11-25T02:51:01.041Z,2.31
2022-11-25T02:51:21.087Z,2.29
2022-11-25T02:51:41.261Z,2.3
2022-11-25T02:52:01.206Z,2.31
2022-11-25T02:52:21.284Z,2.3
2022-11-25T02:52:41.332Z,2.31
2022-11-25T02:53:01.386Z,2.31
2022-11-25T02:53:21.447Z,2.31
2022-11-25T02:53:41.502Z,2.33
2022-11-25T02:54:01.567Z,2.34
2022-11-25T02:54:21.629Z,2.3
2022-11-25T02:54:41.689Z,2.33
2022-11-25T02:55:01.760Z,2.33
2022-11-25T02:55:21.811Z,2.31
2022-11-25T02:55:41.871Z,2.31
2022-11-25T02:56:01.921Z,2.33
2022-11-25T02:56:21.996Z,2.31
2022-11-25T02:56:42.173Z,2.31
2022-11-25T02:57:02.080Z,2.33
2022-11-25T02:57:22.157Z,2.34
2022-11-25T02:57:42.202Z,2.33
2022-11-25T02:58:02.287Z,2.31
2022-11-25T02:58:22.371Z,2.31
2022-11-25T02:58:42.431Z,2.27
2022-11-25T02:59:02.495Z,2.26
2022-11-25T02:59:22.540Z,2.24
2022-11-25T02:59:42.628Z,2.22
2022-11-25T03:00:02.679Z,2.2
2022-11-25T03:00:22.722Z,2.17
2022-11-25T03:00:42.862Z,2.13
2022-11-25T03:01:02.942Z,2.13
2022-11-25T03:01:23.013Z,2.12
2022-11-25T03:01:43.057Z,2.1
2022-11-25T03:02:03.053Z,2.06
2022-11-25T03:02:23.108Z,2.03
2022-11-25T03:02:43.207Z,2.01
2022-11-25T03:03:03.206Z,1.98
2022-11-25T03:03:23.257Z,1.96
2022-11-25T03:03:43.316Z,1.95
2022-11-25T03:04:03.379Z,1.93
2022-11-25T03:04:23.430Z,1.9
2022-11-25T03:04:43.499Z,1.87
2022-11-25T03:05:03.563Z,1.87
2022-11-25T03:05:23.607Z,1.81
2022-11-25T03:05:43.665Z,1.83
2022-11-25T03:06:03.743Z,1.79
2022-11-25T03:06:23.792Z,1.79
2022-11-25T03:06:43.957Z,1.78
2022-11-25T03:07:03.905Z,1.75
2022-11-25T03:07:24.003Z,1.75
2022-11-25T03:07:44.014Z,1.73
2022-11-25T03:08:04.078Z,1.72
2022-11-25T03:08:24.146Z,1.72
2022-11-25T03:08:44.205Z,1.72
2022-11-25T03:09:04.269Z,1.68
2022-11-25T03:09:24.308Z,1.68
2022-11-25T03:09:44.389Z,1.68
2022-11-25T03:10:04.457Z,1.65
2022-11-25T03:10:24.527Z,1.69
2022-11-25T03:10:44.563Z,1.65
2022-11-25T03:11:04.615Z,1.65
2022-11-25T03:11:24.676Z,1.64
2022-11-25T03:11:44.853Z,1.62
2022-11-25T03:12:04.801Z,1.62
2022-11-25T03:12:24.866Z,1.62
2022-11-25T03:12:44.921Z,1.59
2022-11-25T03:13:04.988Z,1.58
2022-11-25T03:13:25.060Z,1.58
2022-11-25T03:13:45.124Z,1.55
2022-11-25T03:14:05.170Z,1.58
2022-11-25T03:14:25.223Z,1.55
2022-11-25T03:14:45.294Z,1.54
2022-11-25T03:15:05.333Z,1.54
2022-11-25T03:15:25.389Z,1.54
2022-11-25T03:15:45.451Z,1.54
2022-11-25T03:16:05.549Z,1.53
2022-11-25T03:16:25.631Z,1.54
2022-11-25T03:16:45.961Z,1.51
2022-11-25T03:17:05.689Z,1.51
2022-11-25T03:17:25.760Z,1.51
2022-11-25T03:17:45.811Z,1.53
2022-11-25T03:18:05.854Z,1.53
2022-11-25T03:18:25.954Z,1.53
2022-11-25T03:18:46.004Z,1.55
2022-11-25T03:19:06.052Z,1.55
2022-11-25T03:19:26.118Z,1.55
2022-11-25T03:19:46.179Z,1.58
2022-11-25T03:20:06.224Z,1.57
2022-11-25T03:20:26.275Z,1.55
2022-11-25T03:20:46.355Z,1.57
2022-11-25T03:21:06.403Z,1.57
2022-11-25T03:21:26.500Z,1.54
2022-11-25T03:21:46.668Z,1.54
2022-11-25T03:22:06.639Z,1.51
2022-11-25T03:22:26.706Z,1.54
2022-11-25T03:22:46.757Z,1.51
2022-11-25T03:23:06.809Z,1.5
2022-11-25T03:23:26.875Z,1.5
2022-11-25T03:23:46.923Z,1.5
2022-11-25T03:24:06.996Z,1.45
2022-11-25T03:24:27.031Z,1.45
2022-11-25T03:24:47.108Z,1.45
2022-11-25T03:25:07.168Z,1.43
2022-11-25T03:25:27.216Z,1.41
2022-11-25T03:25:47.262Z,1.4
2022-11-25T03:26:07.316Z,1.38
2022-11-25T03:26:27.384Z,1.37
2022-11-25T03:26:47.546Z,1.38
2022-11-25T03:27:07.523Z,1.35
2022-11-25T03:27:30.286Z,1.35
2022-11-25T03:27:47.657Z,1.34
2022-11-25T03:28:07.798Z,1.33
2022-11-25T03:28:27.782Z,1.31
2022-11-25T03:28:47.793Z,1.3
2022-11-25T03:29:07.874Z,1.3
2022-11-25T03:29:27.944Z,1.27
2022-11-25T03:29:48.008Z,1.26
2022-11-25T03:30:08.070Z,1.26
2022-11-25T03:30:28.135Z,1.24
2022-11-25T03:30:48.189Z,1.22
2022-11-25T03:31:08.251Z,1.23
2022-11-25T03:31:28.411Z,1.22
2022-11-25T03:31:48.590Z,1.22
2022-11-25T03:32:09.889Z,1.2
2022-11-25T03:32:28.481Z,1.2
2022-11-25T03:32:48.545Z,1.2
2022-11-25T03:33:08.594Z,1.17
2022-11-25T03:33:28.660Z,1.16
2022-11-25T03:33:48.724Z,1.14
2022-11-25T03:34:08.771Z,1.14
2022-11-25T03:34:28.823Z,1.16
2022-11-25T03:34:48.883Z,1.14
2022-11-25T03:35:08.949Z,1.16
2022-11-25T03:35:29.000Z,1.14
2022-11-25T03:35:49.060Z,1.12
2022-11-25T03:36:09.117Z,1.12
2022-11-25T03:36:29.179Z,1.13
2022-11-25T03:36:49.442Z,1.13
2022-11-25T03:37:09.422Z,1.08
2022-11-25T03:37:29.363Z,1.07
2022-11-25T03:37:49.425Z,1.07
2022-11-25T03:38:09.508Z,1.07
2022-11-25T03:38:29.581Z,1.1
2022-11-25T03:38:49.654Z,1.08
2022-11-25T03:39:09.709Z,1.1
2022-11-25T03:39:29.798Z,1.1
2022-11-25T03:39:49.853Z,1.1
2022-11-25T03:40:09.878Z,1.08
2022-11-25T03:40:29.977Z,1.1
2022-11-25T03:40:50.044Z,1.08
2022-11-25T03:41:10.095Z,1.12
2022-11-25T03:41:30.165Z,1.1
2022-11-25T03:41:50.342Z,1.07
2022-11-25T03:42:10.282Z,1.07
2022-11-25T03:42:30.331Z,1.1
2022-11-25T03:42:50.386Z,1.07
2022-11-25T03:43:10.464Z,1.07
2022-11-25T03:43:30.509Z,1.07
2022-11-25T03:43:50.564Z,1.07
2022-11-25T03:44:10.632Z,1.06
2022-11-25T03:44:30.682Z,1.08
2022-11-25T03:44:50.740Z,1.07
2022-11-25T03:45:10.808Z,1.08
2022-11-25T03:45:30.943Z,1.04
2022-11-25T03:45:51.016Z,1.04
2022-11-25T03:46:11.022Z,1.03
2022-11-25T03:46:31.038Z,1.03
2022-11-25T03:46:51.221Z,1.03
2022-11-25T03:47:11.176Z,1
2022-11-25T03:47:31.224Z,0.99
2022-11-25T03:47:51.270Z,0.99
2022-11-25T03:48:11.337Z,0.97
2022-11-25T03:48:31.403Z,0.97
2022-11-25T03:48:51.471Z,0.95
2022-11-25T03:49:11.540Z,0.96
2022-11-25T03:49:31.587Z,0.92
2022-11-25T03:49:51.624Z,0.92
2022-11-25T03:50:11.705Z,0.92
2022-11-25T03:50:31.742Z,0.89
2022-11-25T03:50:51.835Z,0.89
2022-11-25T03:51:11.899Z,0.87
2022-11-25T03:51:31.968Z,0.86
2022-11-25T03:51:52.201Z,0.85
2022-11-25T03:52:12.069Z,0.86
2022-11-25T03:52:32.158Z,0.86
2022-11-25T03:52:52.213Z,0.83
2022-11-25T03:53:12.277Z,0.83
2022-11-25T03:53:32.334Z,0.82
2022-11-25T03:53:52.387Z,0.82
2022-11-25T03:54:12.451Z,0.8
2022-11-25T03:54:32.502Z,0.8
2022-11-25T03:54:52.552Z,0.77
2022-11-25T03:55:12.618Z,0.79
2022-11-25T03:55:32.676Z,0.77
2022-11-25T03:55:52.731Z,0.79
2022-11-25T03:56:12.776Z,0.79
2022-11-25T03:56:32.867Z,0.77
2022-11-25T03:56:53.044Z,0.79
2022-11-25T03:57:12.988Z,0.79
2022-11-25T03:57:33.049Z,0.79
2022-11-25T03:57:53.096Z,0.79
2022-11-25T03:58:13.165Z,0.79
2022-11-25T03:58:33.229Z,0.79
2022-11-25T03:58:53.291Z,0.77
2022-11-25T03:59:13.336Z,0.77
2022-11-25T03:59:33.398Z,0.77
2022-11-25T03:59:53.461Z,0.77
2022-11-25T04:00:13.513Z,0.77
2022-11-25T04:00:33.575Z,0.75
2022-11-25T04:00:53.715Z,0.76
2022-11-25T04:01:13.800Z,0.73
2022-11-25T04:01:33.870Z,0.73
2022-11-25T04:01:54.130Z,0.73
2022-11-25T04:02:13.907Z,0.73
2022-11-25T04:02:34.014Z,0.73
2022-11-25T04:02:54.155Z,0.72
2022-11-25T04:03:14.071Z,0.72
2022-11-25T04:03:34.108Z,0.72
2022-11-25T04:03:54.167Z,0.73
2022-11-25T04:04:14.230Z,0.71
2022-11-25T04:04:34.767Z,0.71
2022-11-25T04:04:54.337Z,0.72
2022-11-25T04:05:14.404Z,0.75
2022-11-25T04:05:34.458Z,0.72
2022-11-25T04:05:54.512Z,0.73
2022-11-25T04:06:14.639Z,0.76
2022-11-25T04:06:34.618Z,0.76
2022-11-25T04:06:54.886Z,0.73
2022-11-25T04:07:14.828Z,0.73
2022-11-25T04:07:34.897Z,0.75
2022-11-25T04:07:57.922Z,0.77
2022-11-25T04:08:14.919Z,0.77
2022-11-25T04:08:34.979Z,0.76
2022-11-25T04:08:55.040Z,0.75
2022-11-25T04:09:15.129Z,0.75
2022-11-25T04:09:35.173Z,0.76
2022-11-25T04:09:55.255Z,0.76
2022-11-25T04:10:15.308Z,0.77
2022-11-25T04:10:35.358Z,0.77
2022-11-25T04:10:55.409Z,0.75
2022-11-25T04:11:15.469Z,0.76
2022-11-25T04:11:35.551Z,0.76
2022-11-25T04:11:55.710Z,0.76
2022-11-25T04:12:15.627Z,0.75
2022-11-25T04:12:35.738Z,0.75
2022-11-25T04:12:55.824Z,0.76
2022-11-25T04:13:15.874Z,0.75
2022-11-25T04:13:35.969Z,0.73
2022-11-25T04:13:56.031Z,0.76
2022-11-25T04:14:16.115Z,0.75
2022-11-25T04:14:36.412Z,0.76
2022-11-25T04:14:56.232Z,0.75
2022-11-25T04:15:16.310Z,0.75
2022-11-25T04:15:36.376Z,0.71
2022-11-25T04:15:56.440Z,0.73
2022-11-25T04:16:16.571Z,0.72
2022-11-25T04:16:36.720Z,0.72
2022-11-25T04:16:56.907Z,0.73
2022-11-25T04:17:16.695Z,0.72
2022-11-25T04:17:36.774Z,0.71
2022-11-25T04:17:56.836Z,0.69
2022-11-25T04:18:16.909Z,0.68
2022-11-25T04:18:37.013Z,0.71
2022-11-25T04:18:57.077Z,0.71
2022-11-25T04:19:17.152Z,0.71
2022-11-25T04:19:37.264Z,0.72
2022-11-25T04:19:57.328Z,0.72
2022-11-25T04:20:17.386Z,0.69
2022-11-25T04:20:37.447Z,0.69
2022-11-25T04:20:57.577Z,0.68
2022-11-25T04:21:17.575Z,0.69
2022-11-25T04:21:37.641Z,0.71
2022-11-25T04:21:57.925Z,0.66
2022-11-25T04:22:17.826Z,0.68
2022-11-25T04:22:37.880Z,0.65
2022-11-25T04:22:57.947Z,0.65
2022-11-25T04:23:18.015Z,0.64
2022-11-25T04:23:38.099Z,0.64
2022-11-25T04:23:58.111Z,0.62
2022-11-25T04:24:18.199Z,0.59
2022-11-25T04:24:38.502Z,0.61
2022-11-25T04:24:58.355Z,0.61
2022-11-25T04:25:18.422Z,0.61
2022-11-25T04:25:38.487Z,0.62
2022-11-25T04:25:58.583Z,0.61
2022-11-25T04:26:18.622Z,0.62
2022-11-25T04:26:38.705Z,0.64
2022-11-25T04:26:58.898Z,0.68
2022-11-25T04:27:20.427Z,0.72
2022-11-25T04:27:38.883Z,0.8
2022-11-25T04:27:58.958Z,0.8